Charles, North Carolina
Current Conditions -  °F | °C
As of 1:35 AM on Friday 31 Oct 2014 (Local Time) from KSVH Reporting Station
Clear Clear  
Wind Chill: 43°   Ceiling: Unl
Heat Index: 46°   Visibility: 10mi
Dew Point: 38°   Wind: 5mph
Humidity: 76%   Direction: 20°NNE
Pressure: 29.98"   Gusts: NA
Location:  35.8306°N, 80.9003°W
Report Text: KSVH 310535Z AUTO 02004KT 10SM CLR 08/04 A2998 RMK AO2 T00760036
Loading
Personal Weather Stations






























Interactive Weather Map
Tropical Storm Tracking
New forecast layout! Learn more

10-Day Weather Forecast

Advertisements
Track Severe Weather on mobile